Time;durP1;ratioP1;P1;durP2;ratioP2;P2;SDS_P1;SDS_P2;PMS_P1;PMS_P2;Temp;Humidity;BMP_temperature;BMP_pressure;BME280_temperature;BME280_humidity;BME280_pressure;Samples;Min_cycle;Max_cycle;Signal;HPM_P1;HPM_P2
2024/02/27 00:00:03;;;;;;;28.17;27.17;;;25.00;1.00;;;;;;2610188;54;20189;-75
2024/02/27 00:02:29;;;;;;;28.93;27.83;;;24.90;1.00;;;;;;2611422;54;20198;-75
2024/02/27 00:04:55;;;;;;;29.50;28.40;;;24.90;1.00;;;;;;2611294;54;20431;-75
2024/02/27 00:07:20;;;;;;;29.30;28.20;;;24.90;1.00;;;;;;2611755;54;20179;-75
2024/02/27 00:09:47;;;;;;;28.63;27.60;;;24.80;1.00;;;;;;2612122;39;20442;-75
2024/02/27 00:12:12;;;;;;;28.27;27.27;;;24.80;1.00;;;;;;2610069;54;20157;-75
2024/02/27 00:14:38;;;;;;;28.20;27.20;;;24.70;1.00;;;;;;2610582;54;20465;-75
2024/02/27 00:17:05;;;;;;;28.40;27.40;;;24.70;1.00;;;;;;2610820;54;20177;-75
2024/02/27 00:19:31;;;;;;;29.20;28.10;;;24.70;1.00;;;;;;2610673;47;20170;-75
2024/02/27 00:21:57;;;;;;;28.03;27.03;;;24.70;1.00;;;;;;2611041;54;20517;-76
2024/02/27 00:24:22;;;;;;;28.80;27.80;;;24.70;1.00;;;;;;2611641;47;20176;-76
2024/02/27 00:26:48;;;;;;;28.10;27.10;;;24.60;1.00;;;;;;2609508;47;20210;-75
2024/02/27 00:29:14;;;;;;;28.70;27.60;;;24.60;1.00;;;;;;2611345;54;20176;-75
2024/02/27 00:31:39;;;;;;;29.17;28.10;;;24.50;1.00;;;;;;2611245;54;20185;-75
2024/02/27 00:34:05;;;;;;;28.00;27.00;;;24.50;1.00;;;;;;2611348;54;20184;-75
2024/02/27 00:36:31;;;;;;;29.20;28.10;;;24.50;1.00;;;;;;2611185;54;20169;-75
2024/02/27 00:38:56;;;;;;;29.80;28.70;;;24.50;1.00;;;;;;2610925;47;20195;-75
2024/02/27 00:41:23;;;;;;;28.50;27.50;;;24.40;1.00;;;;;;2611474;54;20167;-74
2024/02/27 00:43:49;;;;;;;29.27;28.17;;;24.40;1.00;;;;;;2611010;39;20608;-75
2024/02/27 00:46:14;;;;;;;29.37;28.27;;;24.40;1.00;;;;;;2611495;54;20438;-75
2024/02/27 00:48:40;;;;;;;30.10;29.00;;;24.30;1.00;;;;;;2612424;54;20169;-75
2024/02/27 00:51:06;;;;;;;29.47;28.40;;;24.30;1.00;;;;;;2611773;54;20181;-75
2024/02/27 00:53:31;;;;;;;29.80;28.70;;;24.30;1.00;;;;;;2610817;54;20268;-75
2024/02/27 00:55:57;;;;;;;31.13;30.00;;;24.30;1.00;;;;;;2610912;47;20169;-75
2024/02/27 00:58:27;;;;;;;29.60;28.50;;;24.30;1.00;;;;;;2611514;39;20908;-75
2024/02/27 01:00:53;;;;;;;29.50;28.40;;;24.30;1.00;;;;;;2610766;54;20185;-75
2024/02/27 01:03:18;;;;;;;29.90;28.80;;;24.20;1.00;;;;;;2611368;54;20457;-75
2024/02/27 01:05:44;;;;;;;29.10;28.00;;;24.20;1.00;;;;;;2611863;54;20707;-74
2024/02/27 01:08:10;;;;;;;29.20;28.10;;;24.20;1.00;;;;;;2611515;54;20144;-75
2024/02/27 01:10:35;;;;;;;28.40;27.40;;;24.10;1.00;;;;;;2609746;54;20180;-74
2024/02/27 01:13:01;;;;;;;30.07;28.97;;;24.10;1.00;;;;;;2611022;54;20149;-74
2024/02/27 01:15:28;;;;;;;29.50;28.40;;;24.10;1.00;;;;;;2608814;54;20176;-75
2024/02/27 01:17:54;;;;;;;29.10;28.00;;;24.10;1.00;;;;;;2612072;47;20441;-74
2024/02/27 01:20:19;;;;;;;30.40;29.30;;;24.10;1.00;;;;;;2611543;54;20263;-74
2024/02/27 01:22:45;;;;;;;29.97;28.87;;;24.10;1.00;;;;;;2611415;39;20595;-74
2024/02/27 01:25:12;;;;;;;30.27;29.17;;;24.00;1.00;;;;;;2612046;54;20282;-75
2024/02/27 01:27:38;;;;;;;30.63;29.53;;;24.00;1.00;;;;;;2611594;54;20406;-74
2024/02/27 01:30:04;;;;;;;31.10;29.90;;;24.00;1.00;;;;;;2610988;47;20511;-74
2024/02/27 01:32:30;;;;;;;31.30;30.10;;;24.00;1.00;;;;;;2611560;54;20223;-75
2024/02/27 01:34:58;;;;;;;30.20;29.10;;;23.90;1.00;;;;;;2611873;47;20425;-74
2024/02/27 01:37:25;;;;;;;30.77;29.60;;;23.90;1.00;;;;;;2618629;54;20151;-85
2024/02/27 01:39:51;;;;;;;29.90;28.80;;;23.90;1.00;;;;;;2618994;54;20515;-85
2024/02/27 01:42:17;;;;;;;30.20;29.10;;;23.90;1.00;;;;;;2619224;39;20788;-85
2024/02/27 01:44:48;;;;;;;30.10;29.00;;;23.90;1.00;;;;;;2618457;54;20276;-86
2024/02/27 01:47:14;;;;;;;29.70;28.60;;;23.80;1.00;;;;;;2613067;47;20260;-82
2024/02/27 01:49:41;;;;;;;30.00;28.90;;;23.80;1.00;;;;;;2612289;54;20445;-81
2024/02/27 01:52:07;;;;;;;30.13;28.93;;;23.80;1.00;;;;;;2612118;54;20512;-81
2024/02/27 01:54:33;;;;;;;30.80;29.60;;;23.80;1.00;;;;;;2612455;54;20476;-82
2024/02/27 01:56:59;;;;;;;30.40;29.30;;;23.80;1.00;;;;;;2611888;54;20428;-83
2024/02/27 01:59:25;;;;;;;30.47;29.27;;;23.70;1.00;;;;;;2610969;47;20431;-82
2024/02/27 02:01:52;;;;;;;31.90;30.60;;;23.80;1.00;;;;;;2611590;54;21059;-81
2024/02/27 02:04:18;;;;;;;32.93;31.63;;;23.70;1.00;;;;;;2612225;51;20155;-83
2024/02/27 02:06:47;;;;;;;30.33;29.23;;;23.70;1.00;;;;;;2612369;54;20421;-83
2024/02/27 02:09:13;;;;;;;30.63;29.43;;;23.70;1.00;;;;;;2611909;54;20395;-82
2024/02/27 02:11:41;;;;;;;31.20;30.00;;;23.70;1.00;;;;;;2611594;39;20815;-83
2024/02/27 02:14:08;;;;;;;30.90;29.70;;;23.70;1.00;;;;;;2611738;54;20438;-81
2024/02/27 02:16:33;;;;;;;30.70;29.50;;;23.60;1.00;;;;;;2612099;54;20415;-81
2024/02/27 02:18:59;;;;;;;32.17;30.87;;;23.60;1.00;;;;;;2610886;54;21221;-81
2024/02/27 02:21:25;;;;;;;30.53;29.33;;;23.60;1.00;;;;;;2611442;54;20190;-81
2024/02/27 02:23:51;;;;;;;32.53;31.23;;;23.60;1.00;;;;;;2610807;54;20230;-81
2024/02/27 02:26:18;;;;;;;31.30;30.10;;;23.60;1.00;;;;;;2611569;54;20751;-81
2024/02/27 02:28:43;;;;;;;31.50;30.30;;;23.60;1.00;;;;;;2611970;54;20433;-81
2024/02/27 02:31:09;;;;;;;31.30;30.10;;;23.50;1.00;;;;;;2611678;54;20452;-81
2024/02/27 02:33:35;;;;;;;31.80;30.60;;;23.50;1.00;;;;;;2612276;47;20175;-81
2024/02/27 02:36:01;;;;;;;30.57;29.37;;;23.50;1.00;;;;;;2611450;39;20575;-81
2024/02/27 02:38:26;;;;;;;31.50;30.30;;;23.50;1.00;;;;;;2611856;47;20249;-81
2024/02/27 02:40:52;;;;;;;30.90;29.70;;;23.50;1.00;;;;;;2611967;54;20212;-82
2024/02/27 02:43:18;;;;;;;30.50;29.30;;;23.40;1.00;;;;;;2611669;46;20164;-81
2024/02/27 02:45:43;;;;;;;32.00;30.80;;;23.40;1.00;;;;;;2612290;54;20818;-82
2024/02/27 02:48:09;;;;;;;32.83;31.50;;;23.40;1.00;;;;;;2612088;54;20192;-82
2024/02/27 02:50:35;;;;;;;31.50;30.30;;;23.40;1.00;;;;;;2611393;54;21013;-83
2024/02/27 02:53:00;;;;;;;30.83;29.63;;;23.40;1.00;;;;;;2611317;54;20800;-83
2024/02/27 02:55:28;;;;;;;31.30;30.10;;;23.40;1.00;;;;;;2612008;54;20409;-80
2024/02/27 02:57:55;;;;;;;30.70;29.50;;;23.40;1.00;;;;;;2611137;51;20172;-79
2024/02/27 03:00:21;;;;;;;31.07;29.87;;;23.30;1.00;;;;;;2613173;54;20480;-80
2024/02/27 03:02:46;;;;;;;31.27;30.07;;;23.30;1.00;;;;;;2611120;54;20447;-79
2024/02/27 03:05:12;;;;;;;30.50;29.30;;;23.40;1.00;;;;;;2610620;47;20429;-75
2024/02/27 03:07:39;;;;;;;31.10;29.90;;;23.30;1.00;;;;;;2610406;46;20169;-75
2024/02/27 03:10:06;;;;;;;30.97;29.77;;;23.30;1.00;;;;;;2611170;54;20481;-75
2024/02/27 03:12:31;;;;;;;31.20;30.00;;;23.30;1.00;;;;;;2610436;54;20420;-75
2024/02/27 03:14:57;;;;;;;31.10;29.90;;;23.20;1.00;;;;;;2610624;54;20974;-75
2024/02/27 03:17:23;;;;;;;30.40;29.20;;;23.20;1.00;;;;;;2611020;54;20264;-75
2024/02/27 03:19:48;;;;;;;31.50;30.30;;;23.20;1.00;;;;;;2611033;54;20168;-75
2024/02/27 03:22:14;;;;;;;31.27;30.07;;;23.20;1.00;;;;;;2611254;54;20690;-75
2024/02/27 03:24:40;;;;;;;31.30;30.10;;;23.20;1.00;;;;;;2610521;54;20159;-75
2024/02/27 03:27:06;;;;;;;30.67;29.47;;;23.20;1.00;;;;;;2611009;54;21151;-75
2024/02/27 03:29:33;;;;;;;30.93;29.73;;;23.20;1.00;;;;;;2611162;54;20162;-75
2024/02/27 03:31:58;;;;;;;30.37;29.17;;;23.20;1.00;;;;;;2611781;54;20446;-75
2024/02/27 03:34:26;;;;;;;30.50;29.30;;;23.20;1.00;;;;;;2611788;47;20464;-75
2024/02/27 03:36:52;;;;;;;30.70;29.50;;;23.20;1.00;;;;;;2610707;54;20248;-75
2024/02/27 03:39:18;;;;;;;31.70;30.50;;;23.10;1.00;;;;;;2611529;39;20955;-75
2024/02/27 03:41:43;;;;;;;31.03;29.83;;;23.10;1.00;;;;;;2610241;54;20542;-75
2024/02/27 03:44:09;;;;;;;31.50;30.30;;;23.10;1.00;;;;;;2610465;54;20163;-75
2024/02/27 03:46:35;;;;;;;31.20;30.00;;;23.10;1.00;;;;;;2611446;54;20982;-75
2024/02/27 03:49:01;;;;;;;31.43;30.20;;;23.10;1.00;;;;;;2610370;54;20690;-75
2024/02/27 03:51:27;;;;;;;30.80;29.60;;;23.10;1.00;;;;;;2611538;39;20851;-75
2024/02/27 03:53:52;;;;;;;31.70;30.50;;;23.10;1.00;;;;;;2610119;54;20429;-75
2024/02/27 03:56:18;;;;;;;30.43;29.23;;;23.00;1.00;;;;;;2611030;54;20157;-82
2024/02/27 03:58:46;;;;;;;32.03;30.73;;;23.00;1.00;;;;;;2611479;54;20163;-83
2024/02/27 04:01:15;;;;;;;31.70;30.40;;;23.00;1.00;;;;;;2612058;47;20247;-83
2024/02/27 04:03:41;;;;;;;32.60;31.30;;;23.00;1.00;;;;;;2610557;54;20495;-83
2024/02/27 04:06:07;;;;;;;32.50;31.20;;;22.90;1.00;;;;;;2611199;54;20419;-82
2024/02/27 04:08:33;;;;;;;31.90;30.70;;;23.00;1.00;;;;;;2612655;54;20760;-82
2024/02/27 04:10:58;;;;;;;32.10;30.80;;;22.90;1.00;;;;;;2611540;54;20969;-81
2024/02/27 04:13:25;;;;;;;31.67;30.47;;;22.90;1.00;;;;;;2612862;54;20158;-81
2024/02/27 04:15:50;;;;;;;31.60;30.40;;;22.90;1.00;;;;;;2611401;39;20696;-76
2024/02/27 04:18:16;;;;;;;32.03;30.77;;;22.90;1.00;;;;;;2610467;46;20418;-75
2024/02/27 04:20:43;;;;;;;32.30;31.00;;;22.80;1.00;;;;;;2611434;39;20561;-75
2024/02/27 04:23:09;;;;;;;32.30;31.00;;;22.80;1.00;;;;;;2609815;39;20345;-75
2024/02/27 04:25:35;;;;;;;32.10;30.90;;;22.80;1.00;;;;;;2610007;47;20408;-76
2024/02/27 04:28:01;;;;;;;32.47;31.17;;;22.80;1.00;;;;;;2611121;54;20491;-75
2024/02/27 04:30:26;;;;;;;32.67;31.37;;;22.80;1.00;;;;;;2609804;54;20506;-75
2024/02/27 04:32:52;;;;;;;31.90;30.70;;;22.80;1.00;;;;;;2611633;47;20433;-75
2024/02/27 04:35:18;;;;;;;31.70;30.50;;;22.80;1.00;;;;;;2610734;39;20842;-75
2024/02/27 04:37:44;;;;;;;32.10;30.90;;;22.80;1.00;;;;;;2611503;54;20196;-75
2024/02/27 04:40:10;;;;;;;32.77;31.47;;;22.80;1.00;;;;;;2612243;39;20587;-75
2024/02/27 04:42:36;;;;;;;32.40;31.10;;;22.80;1.00;;;;;;2610417;54;20272;-76
2024/02/27 04:45:02;;;;;;;32.70;31.40;;;22.70;1.00;;;;;;2610107;47;20423;-76
2024/02/27 04:47:27;;;;;;;33.23;31.93;;;22.70;1.00;;;;;;2611619;54;20160;-76
2024/02/27 04:49:53;;;;;;;31.87;30.67;;;22.70;1.00;;;;;;2610639;54;20246;-76
2024/02/27 04:52:19;;;;;;;32.70;31.40;;;22.70;1.00;;;;;;2611368;54;20208;-76
2024/02/27 04:54:45;;;;;;;31.90;30.70;;;22.60;1.00;;;;;;2611058;39;20642;-76
2024/02/27 04:57:11;;;;;;;32.67;31.37;;;22.60;1.00;;;;;;2609869;54;20430;-76
2024/02/27 04:59:36;;;;;;;32.40;31.10;;;22.60;1.00;;;;;;2611609;54;20724;-76
2024/02/27 05:02:03;;;;;;;33.20;31.90;;;22.60;1.00;;;;;;2610455;54;20197;-76
2024/02/27 05:04:29;;;;;;;33.90;32.70;;;22.60;1.00;;;;;;2610676;54;20152;-75
2024/02/27 05:06:55;;;;;;;32.50;31.20;;;22.60;1.00;;;;;;2612016;39;20932;-82
2024/02/27 05:09:22;;;;;;;33.17;31.87;;;22.70;1.00;;;;;;2612144;54;20467;-82
2024/02/27 05:11:47;;;;;;;34.23;32.93;;;22.70;1.00;;;;;;2610667;39;20538;-82
2024/02/27 05:14:13;;;;;;;32.40;31.17;;;22.70;1.00;;;;;;2612352;54;20535;-82
2024/02/27 05:16:39;;;;;;;33.10;31.80;;;22.70;1.00;;;;;;2611646;39;20701;-82
2024/02/27 05:19:04;;;;;;;32.50;31.30;;;22.70;1.00;;;;;;2610873;54;20193;-82
2024/02/27 05:21:30;;;;;;;32.63;31.33;;;22.70;1.00;;;;;;2610616;54;20285;-82
2024/02/27 05:23:56;;;;;;;33.40;32.10;;;22.70;1.00;;;;;;2610698;54;20736;-82
2024/02/27 05:26:21;;;;;;;34.40;33.00;;;22.70;1.00;;;;;;2619218;47;20167;-87
2024/02/27 05:28:48;;;;;;;34.83;33.53;;;22.70;1.00;;;;;;2627319;39;20995;-88
2024/02/27 05:31:27;;;;;;;34.10;32.80;;;22.70;1.00;;;;;;2625272;54;20145;-87
2024/02/27 05:33:58;;;;;;;33.27;31.97;;;22.70;1.00;;;;;;2625861;54;20425;-87
2024/02/27 05:36:24;;;;;;;34.50;33.20;;;22.70;1.00;;;;;;2616905;54;20539;-76
2024/02/27 05:38:51;;;;;;;34.70;33.30;;;22.70;1.00;;;;;;2610699;54;20456;-76
2024/02/27 05:41:17;;;;;;;33.70;32.40;;;22.70;1.00;;;;;;2610288;47;20577;-76
2024/02/27 05:43:43;;;;;;;35.37;33.97;;;22.70;1.00;;;;;;2611072;54;20438;-76
2024/02/27 05:46:09;;;;;;;36.87;35.47;;;22.70;1.00;;;;;;2610828;39;20853;-76
2024/02/27 05:48:39;;;;;;;34.63;33.23;;;22.70;1.00;;;;;;2610774;39;21172;-76
2024/02/27 05:51:05;;;;;;;35.63;34.23;;;22.70;1.00;;;;;;2609274;54;20483;-76
2024/02/27 05:53:32;;;;;;;36.00;34.70;;;22.70;1.00;;;;;;2610492;54;20529;-75
2024/02/27 05:55:58;;;;;;;33.17;31.87;;;22.60;1.00;;;;;;2611305;47;20461;-75
2024/02/27 05:58:24;;;;;;;35.53;34.13;;;22.60;1.00;;;;;;2611388;39;20801;-76
2024/02/27 06:00:51;;;;;;;35.20;33.90;;;22.60;1.00;;;;;;2610536;47;20468;-75
2024/02/27 06:03:17;;;;;;;33.00;31.70;;;22.60;1.00;;;;;;2611220;54;20430;-76
2024/02/27 06:05:43;;;;;;;33.87;32.57;;;22.60;1.00;;;;;;2612665;54;21448;-76
2024/02/27 06:08:09;;;;;;;34.60;33.30;;;22.60;1.00;;;;;;2611697;54;20418;-76
2024/02/27 06:10:37;;;;;;;33.43;32.13;;;22.60;1.00;;;;;;2611905;54;20433;-76
2024/02/27 06:13:03;;;;;;;33.50;32.20;;;22.60;1.00;;;;;;2611336;39;20560;-76
2024/02/27 06:15:29;;;;;;;34.17;32.87;;;22.60;1.00;;;;;;2611932;54;20460;-76
2024/02/27 06:17:54;;;;;;;35.17;33.77;;;22.60;1.00;;;;;;2612289;54;20453;-76
2024/02/27 06:23:04;;;;;;;33.70;32.40;;;22.60;1.00;;;;;;2612399;39;20641;-76
2024/02/27 06:25:30;;;;;;;36.80;35.23;;;22.60;1.00;;;;;;2611540;47;20460;-76
2024/02/27 06:27:55;;;;;;;33.30;32.00;;;22.50;1.00;;;;;;2613229;54;20151;-76
2024/02/27 06:30:21;;;;;;;33.90;32.60;;;22.50;1.00;;;;;;2610774;54;20158;-76
2024/02/27 06:32:47;;;;;;;34.10;32.80;;;22.60;1.00;;;;;;2610948;54;20179;-77
2024/02/27 06:35:12;;;;;;;31.60;30.40;;;22.50;1.00;;;;;;2612472;47;20158;-81
2024/02/27 06:37:40;;;;;;;33.80;32.50;;;22.50;1.00;;;;;;2612717;47;20654;-79
2024/02/27 06:40:06;;;;;;;34.60;33.30;;;22.50;1.00;;;;;;2613168;54;20315;-80
2024/02/27 06:42:36;;;;;;;35.43;34.13;;;22.50;1.00;;;;;;2611975;54;20438;-79
2024/02/27 06:45:06;;;;;;;33.40;32.10;;;22.50;1.00;;;;;;2611950;54;20442;-86
2024/02/27 06:47:42;;;;;;;35.53;34.13;;;22.50;1.00;;;;;;2625112;54;20402;-87
2024/02/27 06:50:10;;;;;;;34.40;33.07;;;22.50;1.00;;;;;;2625736;54;20408;-87
2024/02/27 06:52:42;;;;;;;34.40;33.10;;;22.50;1.00;;;;;;2625757;54;20401;-86
2024/02/27 06:55:08;;;;;;;32.07;30.80;;;22.50;1.00;;;;;;2625388;54;20404;-88
2024/02/27 06:57:36;;;;;;;34.00;32.60;;;22.50;1.00;;;;;;2625691;54;20422;-86
2024/02/27 07:00:09;;;;;;;32.00;30.87;;;22.50;1.00;;;;;;2625457;54;20668;-86
2024/02/27 07:02:49;;;;;;;33.00;31.70;;;22.50;1.00;;;;;;2626654;39;21186;-87
2024/02/27 07:05:16;;;;;;;33.60;32.30;;;22.50;1.00;;;;;;2625813;54;20391;-86
2024/02/27 07:07:43;;;;;;;33.43;32.23;;;22.50;1.00;;;;;;2625666;54;20394;-86
2024/02/27 07:10:09;;;;;;;33.70;32.40;;;22.50;1.00;;;;;;2625419;54;20926;-88
2024/02/27 07:12:36;;;;;;;34.90;33.57;;;22.50;1.00;;;;;;2625357;47;20395;-88
2024/02/27 07:15:02;;;;;;;34.60;33.30;;;22.50;1.00;;;;;;2625421;54;20401;-86
2024/02/27 07:17:29;;;;;;;34.00;32.70;;;22.50;1.00;;;;;;2624761;54;20438;-87
2024/02/27 07:20:04;;;;;;;32.93;31.63;;;22.50;1.00;;;;;;2627958;39;21223;-87
2024/02/27 07:22:32;;;;;;;32.70;31.50;;;22.40;1.00;;;;;;2625567;39;20765;-88
2024/02/27 07:24:59;;;;;;;32.80;31.60;;;22.40;1.00;;;;;;2625411;54;20387;-88
2024/02/27 07:27:25;;;;;;;34.10;32.73;;;22.40;1.00;;;;;;2611843;54;20419;-75
2024/02/27 07:29:50;;;;;;;35.00;33.70;;;22.40;1.00;;;;;;2610785;54;20417;-75
2024/02/27 07:32:16;;;;;;;34.30;33.00;;;22.50;1.00;;;;;;2610676;54;20240;-75
2024/02/27 07:34:42;;;;;;;33.10;31.80;;;22.40;1.00;;;;;;2611947;54;20181;-75
2024/02/27 07:37:09;;;;;;;34.20;32.90;;;22.40;1.00;;;;;;2612157;39;20882;-75
2024/02/27 07:39:36;;;;;;;33.80;32.50;;;22.40;1.00;;;;;;2612351;54;20161;-75
2024/02/27 07:42:02;;;;;;;33.30;32.00;;;22.40;1.00;;;;;;2610967;54;20459;-75
2024/02/27 07:44:28;;;;;;;34.27;32.97;;;22.40;1.00;;;;;;2610294;47;20440;-75
2024/02/27 07:46:54;;;;;;;33.40;32.20;;;22.40;1.00;;;;;;2613616;54;20416;-78
2024/02/27 07:49:19;;;;;;;33.10;31.90;;;22.40;1.00;;;;;;2612667;54;20175;-78
2024/02/27 07:51:45;;;;;;;34.27;32.97;;;22.40;1.00;;;;;;2611728;54;20164;-77
2024/02/27 07:54:15;;;;;;;37.23;35.83;;;22.40;1.00;;;;;;2611984;39;20593;-77
2024/02/27 07:56:41;;;;;;;33.80;32.50;;;22.50;1.00;;;;;;2614248;39;20619;-83
2024/02/27 07:59:06;;;;;;;33.33;32.03;;;22.60;1.00;;;;;;2612646;54;20420;-81
2024/02/27 08:01:33;;;;;;;35.30;33.90;;;22.50;1.00;;;;;;2611732;54;20186;-75
2024/02/27 08:03:58;;;;;;;37.70;36.20;;;22.90;1.00;;;;;;2611937;54;20155;-79
2024/02/27 08:06:27;;;;;;;34.77;33.37;;;23.20;1.00;;;;;;2613232;54;20422;-79
2024/02/27 08:08:55;;;;;;;34.30;32.90;;;23.30;1.00;;;;;;2611863;54;20164;-85
2024/02/27 08:11:22;;;;;;;35.93;34.33;;;23.10;1.00;;;;;;2613367;54;20450;-77
2024/02/27 08:13:48;;;;;;;35.67;34.07;;;23.30;1.00;;;;;;2611379;54;20451;-78
2024/02/27 08:16:15;;;;;;;36.87;35.27;;;23.40;1.00;;;;;;2611568;39;21838;-81
2024/02/27 08:18:41;;;;;;;34.40;32.80;;;23.60;1.00;;;;;;2612546;54;20512;-80
2024/02/27 08:21:07;;;;;;;35.13;33.53;;;23.80;1.00;;;;;;2613925;54;20426;-78
2024/02/27 08:23:34;;;;;;;39.80;37.90;;;24.00;1.00;;;;;;2614715;39;20539;-76
2024/02/27 08:26:01;;;;;;;40.73;38.73;;;24.10;1.00;;;;;;2611843;47;20429;-79
2024/02/27 08:28:27;;;;;;;38.43;36.53;;;24.00;1.00;;;;;;2610981;54;20452;-78
2024/02/27 08:30:53;;;;;;;26.50;25.50;;;24.00;1.00;;;;;;2611829;54;20408;-78
2024/02/27 08:33:19;;;;;;;26.30;25.40;;;23.90;1.00;;;;;;2610604;54;20160;-78
2024/02/27 08:35:44;;;;;;;25.40;24.50;;;23.50;1.00;;;;;;2611142;54;20180;-76
2024/02/27 08:38:13;;;;;;;26.40;25.50;;;23.20;1.00;;;;;;2612171;54;20414;-80
2024/02/27 08:40:39;;;;;;;25.90;25.00;;;23.00;1.00;;;;;;2609469;54;20190;-75
2024/02/27 08:43:04;;;;;;;26.10;25.20;;;22.80;1.00;;;;;;2611644;54;20409;-74
2024/02/27 08:45:30;;;;;;;27.90;26.90;;;22.80;1.00;;;;;;2611446;47;20192;-76
2024/02/27 08:47:56;;;;;;;26.60;25.60;;;22.70;1.00;;;;;;2610880;47;20170;-74
2024/02/27 08:50:22;;;;;;;25.90;25.00;;;22.60;1.00;;;;;;2611611;54;20172;-75
2024/02/27 08:52:48;;;;;;;26.40;25.50;;;22.60;1.00;;;;;;2611539;54;20436;-77
2024/02/27 08:55:13;;;;;;;26.87;25.97;;;22.60;1.00;;;;;;2611256;54;20717;-78
2024/02/27 08:57:39;;;;;;;27.40;26.40;;;22.60;1.00;;;;;;2617745;54;20172;-80
2024/02/27 09:00:06;;;;;;;26.80;25.80;;;22.50;1.00;;;;;;2612822;54;20180;-81
2024/02/27 09:02:37;;;;;;;26.00;25.10;;;22.50;1.00;;;;;;2619826;54;20210;-82
2024/02/27 09:05:03;;;;;;;27.47;26.47;;;22.50;1.00;;;;;;2618337;54;20538;-82
2024/02/27 09:07:29;;;;;;;26.90;26.00;;;22.50;1.00;;;;;;2611502;54;20416;-75
2024/02/27 09:09:55;;;;;;;26.33;25.43;;;22.60;1.00;;;;;;2611159;54;20454;-79
2024/02/27 09:12:23;;;;;;;26.80;25.90;;;22.50;1.00;;;;;;2609789;54;20963;-77
2024/02/27 09:14:49;;;;;;;26.53;25.63;;;22.50;1.00;;;;;;2610658;47;20180;-76
2024/02/27 09:17:15;;;;;;;25.40;24.50;;;22.50;1.00;;;;;;2611317;54;20422;-78
2024/02/27 09:19:40;;;;;;;26.63;25.73;;;22.50;1.00;;;;;;2610001;54;20274;-74
2024/02/27 09:22:06;;;;;;;25.77;24.87;;;22.50;1.00;;;;;;2610331;39;20648;-77
2024/02/27 09:24:32;;;;;;;29.40;28.20;;;22.50;1.00;;;;;;2610759;54;20155;-80
2024/02/27 09:26:57;;;;;;;30.90;29.60;;;22.70;1.00;;;;;;2611118;47;20237;-79
2024/02/27 09:29:23;;;;;;;30.90;29.60;;;22.90;1.00;;;;;;2612154;54;20189;-81
2024/02/27 09:31:49;;;;;;;29.80;28.50;;;23.00;1.00;;;;;;2612058;54;20218;-83
2024/02/27 09:34:15;;;;;;;28.50;27.40;;;23.10;1.00;;;;;;2616034;39;20627;-83
2024/02/27 09:36:40;;;;;;;28.27;27.07;;;23.20;1.00;;;;;;2612546;54;20213;-61
2024/02/27 09:39:07;;;;;;;29.10;27.90;;;23.20;1.00;;;;;;2609642;54;20549;-60
2024/02/27 09:42:19;;;;;;;30.00;28.70;;;23.10;1.00;;;;;;2612453;51;20238;-61
2024/02/27 09:44:45;;;;;;;29.20;27.97;;;23.20;1.00;;;;;;2611400;54;20498;-62
2024/02/27 09:47:13;;;;;;;29.53;28.30;;;23.20;1.00;;;;;;2611755;54;20430;-64
2024/02/27 09:49:43;;;;;;;30.60;29.20;;;23.30;1.00;;;;;;2611249;54;20160;-64
2024/02/27 09:52:15;;;;;;;29.50;28.30;;;23.30;1.00;;;;;;2611455;54;20412;-65
2024/02/27 09:54:42;;;;;;;28.63;27.43;;;23.30;1.00;;;;;;2611045;54;20389;-65
2024/02/27 09:57:07;;;;;;;28.70;27.50;;;23.30;1.00;;;;;;2612079;54;21533;-65
2024/02/27 09:59:35;;;;;;;28.90;27.70;;;23.20;1.00;;;;;;2610803;54;20440;-66
2024/02/27 10:02:05;;;;;;;28.00;26.90;;;23.20;1.00;;;;;;2611949;39;21198;-66
2024/02/27 10:04:34;;;;;;;28.40;27.30;;;23.20;1.00;;;;;;2610888;54;20414;-67
2024/02/27 10:07:03;;;;;;;27.33;26.23;;;23.20;1.00;;;;;;2611282;54;20403;-66
2024/02/27 10:09:33;;;;;;;24.90;24.00;;;23.30;1.00;;;;;;2610927;54;20440;-65
2024/02/27 10:11:59;;;;;;;26.47;25.47;;;23.30;1.00;;;;;;2610437;54;20408;-65
2024/02/27 10:14:34;;;;;;;26.27;25.27;;;23.00;1.00;;;;;;2610831;54;20507;-64
2024/02/27 10:17:03;;;;;;;26.40;25.40;;;22.70;1.00;;;;;;2611205;54;20507;-65
2024/02/27 10:19:29;;;;;;;29.33;28.13;;;22.50;1.00;;;;;;2610338;39;20840;-61
2024/02/27 10:21:56;;;;;;;28.77;27.57;;;22.60;1.00;;;;;;2611461;39;20704;-63
2024/02/27 10:24:27;;;;;;;25.60;24.70;;;23.00;1.00;;;;;;2610619;54;20419;-64
2024/02/27 10:26:53;;;;;;;78.07;74.57;;;23.10;1.00;;;;;;2608302;54;20525;-63
2024/02/27 10:29:27;;;;;;;83.87;80.37;;;23.10;1.00;;;;;;2610671;54;20415;-66
2024/02/27 10:31:53;;;;;;;12.13;11.73;;;23.50;1.00;;;;;;2610725;47;20414;-59
2024/02/27 10:34:19;;;;;;;12.83;12.43;;;23.50;1.00;;;;;;2611912;39;20768;-61
2024/02/27 10:36:55;;;;;;;11.87;11.47;;;23.80;1.00;;;;;;2610591;54;21047;-60
2024/02/27 10:39:21;;;;;;;12.17;11.77;;;23.90;1.00;;;;;;2611889;54;20405;-62
2024/02/27 10:41:47;;;;;;;12.37;11.97;;;24.10;1.00;;;;;;2611577;54;20443;-61
2024/02/27 10:44:13;;;;;;;13.97;13.57;;;24.20;1.00;;;;;;2611223;54;20261;-62
2024/02/27 10:46:40;;;;;;;15.23;14.73;;;24.30;1.00;;;;;;2611687;54;20152;-61
2024/02/27 10:49:07;;;;;;;14.60;14.10;;;24.30;1.00;;;;;;2611586;54;20185;-60
2024/02/27 10:51:34;;;;;;;14.43;13.93;;;24.30;1.00;;;;;;2611049;48;20449;-60
2024/02/27 10:54:00;;;;;;;13.47;13.07;;;24.30;1.00;;;;;;2610743;54;21500;-61
2024/02/27 10:56:27;;;;;;;12.40;12.00;;;24.30;1.00;;;;;;2610910;49;20512;-60
2024/02/27 10:58:54;;;;;;;13.07;12.67;;;24.30;1.00;;;;;;2610314;54;20162;-60
2024/02/27 11:01:20;;;;;;;15.20;14.70;;;24.30;1.00;;;;;;2611196;54;20503;-60
2024/02/27 11:03:53;;;;;;;14.90;14.40;;;24.30;1.00;;;;;;2611343;39;20780;-60
2024/02/27 11:06:26;;;;;;;14.00;13.60;;;24.30;1.00;;;;;;2611353;54;20407;-62
2024/02/27 11:09:03;;;;;;;13.30;12.90;;;24.30;1.00;;;;;;2611706;54;20425;-67
2024/02/27 11:11:29;;;;;;;12.83;12.43;;;24.30;1.00;;;;;;2611506;39;20631;-67
2024/02/27 11:14:00;;;;;;;11.93;11.53;;;24.30;1.00;;;;;;2610765;39;20911;-67
2024/02/27 11:16:28;;;;;;;13.27;12.87;;;24.30;1.00;;;;;;2610551;54;20459;-67
2024/02/27 11:18:59;;;;;;;13.73;13.33;;;24.30;1.00;;;;;;2610195;54;20395;-67
2024/02/27 11:21:27;;;;;;;15.93;15.37;;;24.30;1.00;;;;;;2610637;47;20412;-66
2024/02/27 11:23:53;;;;;;;14.40;13.90;;;24.40;1.00;;;;;;2610578;54;20408;-66
2024/02/27 11:26:20;;;;;;;12.73;12.33;;;24.40;1.00;;;;;;2611471;39;21034;-65
2024/02/27 11:28:46;;;;;;;14.80;14.30;;;24.40;1.00;;;;;;2611284;54;20152;-65
2024/02/27 11:31:12;;;;;;;13.70;13.30;;;24.30;1.00;;;;;;2609874;54;20548;-67
2024/02/27 11:33:50;;;;;;;14.40;13.90;;;24.30;1.00;;;;;;2609741;47;20427;-67
2024/02/27 11:36:16;;;;;;;13.90;13.50;;;24.30;1.00;;;;;;2611162;54;20444;-67
2024/02/27 11:38:45;;;;;;;13.30;12.90;;;24.40;1.00;;;;;;2611332;46;20432;-62
2024/02/27 11:41:18;;;;;;;13.43;13.03;;;24.20;1.00;;;;;;2611107;54;20971;-62
2024/02/27 11:43:47;;;;;;;12.77;12.37;;;24.00;1.00;;;;;;2611023;54;20426;-63
2024/02/27 11:46:34;;;;;;;14.33;13.83;;;23.90;1.00;;;;;;2611508;54;20453;-62
2024/02/27 11:49:00;;;;;;;14.70;14.20;;;23.80;1.00;;;;;;2611306;54;20407;-63
2024/02/27 11:51:35;;;;;;;15.37;14.87;;;23.90;1.00;;;;;;2611955;39;20800;-63
2024/02/27 11:54:00;;;;;;;7.90;7.70;;;23.80;1.00;;;;;;2609576;39;20722;-66
2024/02/27 11:56:26;;;;;;;18.30;17.70;;;24.10;1.00;;;;;;2610829;39;20945;-65
2024/02/27 11:58:53;;;;;;;16.20;15.70;;;24.00;1.00;;;;;;2610256;54;20164;-67
2024/02/27 12:01:22;;;;;;;17.70;17.10;;;23.70;1.00;;;;;;2610437;39;20627;-67
2024/02/27 12:03:47;;;;;;;17.53;16.93;;;23.50;1.00;;;;;;2609926;54;20416;-68
2024/02/27 12:06:13;;;;;;;5.80;5.60;;;23.40;1.00;;;;;;2610353;54;20401;-65
2024/02/27 12:08:49;;;;;;;6.60;6.40;;;23.50;1.00;;;;;;2611202;54;20477;-64
2024/02/27 12:11:16;;;;;;;6.10;5.90;;;23.40;1.00;;;;;;2611383;39;20698;-66
2024/02/27 12:13:49;;;;;;;6.40;6.20;;;23.30;1.00;;;;;;2610661;54;20418;-65
2024/02/27 12:16:27;;;;;;;6.37;6.17;;;23.20;1.00;;;;;;2611142;54;20419;-63
2024/02/27 12:18:54;;;;;;;6.10;5.90;;;23.20;1.00;;;;;;2611114;54;20434;-67
2024/02/27 12:21:30;;;;;;;6.60;6.40;;;23.20;1.00;;;;;;2611089;47;20429;-69
2024/02/27 12:24:09;;;;;;;5.40;5.20;;;23.20;1.00;;;;;;2610260;54;21755;-69
2024/02/27 12:26:35;;;;;;;5.90;5.70;;;23.20;1.00;;;;;;2608662;54;20492;-68
2024/02/27 12:29:02;;;;;;;5.30;5.10;;;23.20;1.00;;;;;;2609291;54;20456;-68
2024/02/27 12:31:31;;;;;;;5.87;5.67;;;23.20;1.00;;;;;;2609924;54;20450;-69
2024/02/27 12:34:00;;;;;;;5.00;4.80;;;23.30;1.00;;;;;;2607895;39;20752;-69
2024/02/27 12:36:26;;;;;;;6.30;6.10;;;23.30;1.00;;;;;;2607363;54;20449;-70
2024/02/27 12:38:52;;;;;;;5.50;5.30;;;23.40;1.00;;;;;;2608815;54;20469;-70